Flight Track Log - Related Links

Times and Time Zones

All times are in EDT time to prevent confusion due to time zone crossing. See the FLG3729 flight status page for this flight to view local times or setup timezone preferences in your user account.


Time Position Orientation Groundspeed Altitude Reporting Facility
EDT Latitude Longitude Course Direction KTS MPH feet Rate Location/Type
Thu 06:06:07 AM 42.7658 -73.8053 330° Northwest 145 167 1,300  Level Boston Center
Thu 06:07:25 AM 42.8175 -73.8456 330° Northwest 198 228 4,000 2,471 Climbing Boston Center
Thu 06:08:23 AM 42.8569 -73.9139 308° West 227 261 6,900 2,850 Climbing Boston Center
Thu 06:09:25 AM 42.9006 -73.9794 312° West 230 265 9,700 1,984 Climbing Boston Center
Thu 06:10:27 AM 42.9461 -74.0544 310° West 259 298 11,000 1,200 Climbing Boston Center
Thu 06:11:25 AM 43.0011 -74.1486 309° West 318 366 12,100 1,373 Climbing Boston Center
Thu 06:12:25 AM 43.0450 -74.2550 299° West 323 372 13,700 1,597 Climbing Boston Center
Thu 06:13:29 AM 43.0542 -74.3897 275° West 330 380 15,400 1,537 Climbing Boston Center
Thu 06:14:26 AM 43.0633 -74.5169 276° West 335 386 16,800 1,190 Climbing Boston Center
Thu 06:15:30 AM 43.0711 -74.6467 275° West 343 395 17,800 1,065 Climbing Boston Center
Thu 06:16:30 AM 43.0786 -74.7669 275° West 344 396 19,000 1,091 Climbing Boston Center
Thu 06:17:31 AM 43.0869 -74.8964 275° West 345 397 20,000 1,000 Climbing Boston Center
Thu 06:18:30 AM 43.0944 -75.0317 274° West 351 404 21,000 992 Climbing Boston Center
Thu 06:19:32 AM 43.1033 -75.1661 275° West 351 404 22,000 976 Climbing Boston Center
Thu 06:20:33 AM 43.1119 -75.2978 275° West 349 402 23,000 992 Climbing Boston Center
Thu 06:21:33 AM 43.1192 -75.4264 274° West 339 390 24,000 900 Climbing Boston Center
Thu 06:22:33 AM 43.1261 -75.5531 274° West 334 384 24,800 750 Climbing Boston Center
Thu 06:23:33 AM 43.1331 -75.6794 274° West 333 383 25,500 694 Climbing Boston Center
Thu 06:24:34 AM 43.1400 -75.8058 274° West 333 383 26,200 689 Climbing Boston Center
Thu 06:25:35 AM 43.1472 -75.9319 275° West 333 383 26,900 694 Climbing Boston Center
Thu 06:26:35 AM 43.1528 -76.0561 274° West 332 382 27,600 537 Climbing Boston Center
Thu 06:27:38 AM 43.1597 -76.1806 274° West 330 380 28,000 194 Climbing Boston Center
Thu 06:28:39 AM 43.1514 -76.3114 265° West 341 392 28,000  Level Boston Center
Thu 06:29:37 AM 43.1372 -76.4719 263° West 352 405 28,000  Level Boston Center
Thu 06:30:40 AM 43.1256 -76.6075 263° West 355 409 28,000  Level Boston Center
Thu 06:31:41 AM 43.1156 -76.7308 264° West 358 412 28,000  Level Boston Center
Thu 06:32:40 AM 43.1047 -76.8664 264° West 360 414 28,000  Level Boston Center
Thu 06:33:34 AM 43.0903 -77.0000 262° West 359 413 28,000  Level Cleveland Center
Thu 06:34:35 AM 43.0783 -77.1353 263° West 359 413 28,000  Level Cleveland Center
Thu 06:35:36 AM 43.0656 -77.2692 263° West 359 413 28,000  Level Cleveland Center
Thu 06:36:37 AM 43.0536 -77.4044 263° West 359 413 28,000  Level Cleveland Center
Thu 06:37:38 AM 43.0406 -77.5375 262° West 359 413 28,000  Level Cleveland Center
Thu 06:38:39 AM 43.0281 -77.6719 263° West 359 413 28,000  Level Cleveland Center
Thu 06:39:41 AM 43.0147 -77.8056 262° West 359 413 28,000  Level Cleveland Center
Thu 06:40:42 AM 42.9989 -77.9675 262° West 360 414 28,000  Level Cleveland Center
Thu 06:41:43 AM 42.9856 -78.1022 262° West 360 414 28,000  Level Cleveland Center
Thu 06:42:44 AM 42.9714 -78.2389 262° West 364 419 28,000  Level Cleveland Center
Thu 06:43:46 AM 42.9583 -78.3747 263° West 366 421 28,000  Level Cleveland Center
Thu 06:44:47 AM 42.9439 -78.5086 262° West 362 417 28,000  Level Cleveland Center
Thu 06:45:48 AM 42.9286 -78.6425 261° West 360 414 28,000  Level Cleveland Center
Thu 06:46:49 AM 42.9106 -78.7747 259° West 358 412 28,000  Level Cleveland Center
Thu 06:47:51 AM 42.8908 -78.9094 259° West 359 413 28,000  Level Cleveland Center
Thu 06:48:52 AM 42.8678 -79.0686 259° West 359 413 28,000  Level Cleveland Center
Thu 06:49:53 AM 42.8481 -79.2011 259° West 359 413 28,000  Level Cleveland Center
Thu 06:50:55 AM 42.8278 -79.3342 258° West 359 413 28,000  Level Cleveland Center
Thu 06:51:56 AM 42.8089 -79.4667 259° West 359 413 28,000  Level Cleveland Center
Thu 06:52:57 AM 42.7886 -79.6006 258° West 360 414 28,000  Level Cleveland Center
Thu 06:53:59 AM 42.7678 -79.7342 258° West 361 415 28,000  Level Cleveland Center
Thu 06:55:00 AM 42.7497 -79.8681 260° West 361 415 28,000  Level Cleveland Center
Thu 06:56:02 AM 42.7436 -80.0222 267° West 360 414 28,000  Level Cleveland Center
Thu 06:57:03 AM 42.7386 -80.1575 267° West 360 414 28,000  Level Cleveland Center
Thu 06:58:05 AM 42.7322 -80.2953 266° West 361 415 28,000  Level Cleveland Center
Thu 06:59:06 AM 42.7261 -80.4314 267° West 360 414 28,000  Level Cleveland Center
Thu 07:00:07 AM 42.7211 -80.5697 267° West 361 415 28,000 -49 Level Cleveland Center
Thu 07:01:09 AM 42.7142 -80.7067 266° West 361 415 27,900 -488 Descending Cleveland Center
Thu 07:02:10 AM 42.7086 -80.8469 267° West 369 425 27,000 -976 Descending Cleveland Center
Thu 07:03:12 AM 42.6956 -80.9878 263° West 370 426 25,900 -1,073 Descending Cleveland Center
Thu 07:04:13 AM 42.6789 -81.1286 261° West 373 429 24,800 -927 Descending Cleveland Center
Thu 07:05:15 AM 42.6625 -81.2728 261° West 381 438 24,000 -390 Descending Cleveland Center
Thu 07:06:16 AM 42.6444 -81.4375 262° West 380 437 24,000  Level Cleveland Center
Thu 07:07:18 AM 42.6281 -81.5781 261° West 378 435 24,000  Level Cleveland Center
Thu 07:08:19 AM 42.6106 -81.7194 261° West 378 435 24,000 -390 Level Cleveland Center
Thu 07:09:21 AM 42.5944 -81.8494 260° West 377 434 23,200 -1,452 Descending Cleveland Center
Thu 07:10:23 AM 42.5767 -81.9917 260° West 382 440 21,000 -2,146 Descending Cleveland Center
Thu 07:11:24 AM 42.5606 -82.1250 261° West 364 419 18,800 -2,333 Descending Cleveland Center
Thu 07:11:53 AM 42.5494 -82.2178 261° West 365 420 17,500 -2,634 Descending Cleveland Center
Thu 07:12:05 AM 42.5453 -82.2486 260° West 369 425 17,000 -2,182 Descending Cleveland Center
Thu 07:12:26 AM 42.5408 -82.2897 262° West 368 423 16,300 -2,262 Descending Cleveland Center
Thu 07:13:06 AM 42.5297 -82.3825 261° West 361 415 14,700 -2,262 Descending Cleveland Center
Thu 07:13:27 AM 42.5256 -82.4228 262° West 367 422 14,000 -2,361 Descending Cleveland Center
Thu 07:14:07 AM 42.5122 -82.5158 259° West 351 404 12,300 -1,935 Descending Cleveland Center
Thu 07:14:29 AM 42.5069 -82.5506 258° West 352 405 12,000 -295 Descending Cleveland Center
Thu 07:15:08 AM 42.4767 -82.6331 244° Southwest 339 390 12,000  Level Cleveland Center
Thu 07:15:30 AM 42.4664 -82.6653 247° West 343 395 12,000  Level Cleveland Center
Thu 07:16:09 AM 42.4369 -82.7467 244° Southwest 335 386 12,000  Level Cleveland Center
Thu 07:16:32 AM 42.4261 -82.7786 245° Southwest 338 389 12,000  Level Cleveland Center
Thu 07:17:10 AM 42.3950 -82.8625 243° Southwest 343 395 12,000  Level Cleveland Center
Thu 07:17:33 AM 42.3839 -82.8947 245° Southwest 341 392 12,000  Level Cleveland Center
Thu 07:18:10 AM 42.3503 -82.9864 244° Southwest 351 404 12,000  Level Cleveland Center
Thu 07:18:35 AM 42.3414 -83.0142 247° West 350 403 12,000  Level Cleveland Center
Thu 07:19:12 AM 42.3136 -83.1114 249° West 356 410 12,000  Level Cleveland Center
Thu 07:19:37 AM 42.3119 -83.1375 265° West 351 404 12,000 -393 Level Cleveland Center
Thu 07:20:13 AM 42.3014 -83.2450 262° West 354 407 11,600 -787 Descending Cleveland Center
Thu 07:20:38 AM 42.2986 -83.2872 265° West 352 405 11,200 -590 Descending Cleveland Center
Thu 07:21:14 AM 42.2917 -83.3708 264° West 307 353 11,000 -194 Descending Cleveland Center
Thu 07:21:40 AM 42.2883 -83.4050 262° West 314 361 11,000  Level Cleveland Center
Thu 07:22:14 AM 42.2597 -83.4564 233° Southwest 242 278 11,000 -393 Level Cleveland Center
Thu 07:22:41 AM 42.2394 -83.4747 214° Southwest 255 293 10,600 -1,672 Descending Cleveland Center
Thu 07:23:15 AM 42.2014 -83.5075 213° Southwest 235 270 9,300 -1,839 Descending Cleveland Center
Thu 07:23:43 AM 42.1847 -83.5211 211° Southwest 232 267 8,700 -1,770 Descending Cleveland Center
Thu 07:24:16 AM 42.1472 -83.5558 214° Southwest 233 268 7,500 -1,742 Descending Cleveland Center
Thu 07:24:45 AM 42.1264 -83.5769 217° Southwest 233 268 6,900 -1,574 Descending Cleveland Center
Thu 07:25:17 AM 42.0928 -83.5792 183° South 215 247 5,900 -1,574 Descending Cleveland Center
Thu 07:25:46 AM 42.0819 -83.5592 126° Southeast 226 260 5,300 -1,967 Descending Cleveland Center
Thu 07:26:18 AM 42.0800 -83.5042 93° East 210 242 3,900 -1,839 Descending Cleveland Center
Thu 07:26:48 AM 42.0886 -83.4794 65° Northeast 218 251 3,400 -1,200 Descending Cleveland Center
Thu 07:27:13 AM 42.1114 -83.4522 42° Northeast 195 224 2,800 -984 Descending Cleveland Center
Thu 07:27:49 AM 42.1292 -83.4367 33° Northeast 208 239 2,400 -885 Descending Cleveland Center
Thu 07:28:14 AM 42.1514 -83.4214 27° Northeast 136 157 1,900 -774 Descending Cleveland Center
Thu 07:28:51 AM 42.1647 -83.4119 28° Northeast 167 192 1,600 -689 Descending Cleveland Center
Thu 07:29:15 AM 42.1828 -83.3975 31° Northeast 131 151 1,200 -677 Descending Cleveland Center
Thu 07:29:53 AM 42.1958 -83.3889 26° Northeast 141 162 900 -474 Descending Cleveland Center

Login

Don't have an account? Register now (free) for customized features, flight alerts, and more!